Time;durP1;ratioP1;P1;durP2;ratioP2;P2;SDS_P1;SDS_P2;PMS_P1;PMS_P2;Temp;Humidity;BMP_temperature;BMP_pressure;BME280_temperature;BME280_humidity;BME280_pressure;Samples;Min_cycle;Max_cycle;Signal;HPM_P1;HPM_P2
2022/04/25 00:00:02;;;;;;;42.67;24.30;;;10.20;99.90;;;;;;4985352;28;20503;-86
2022/04/25 00:02:29;;;;;;;42.70;23.20;;;10.30;99.90;;;;;;5008035;28;20036;-85
2022/04/25 00:04:55;;;;;;;45.80;24.98;;;10.30;99.90;;;;;;4998043;28;20018;-86
2022/04/25 00:07:20;;;;;;;45.13;25.55;;;10.30;99.90;;;;;;4994888;28;20400;-85
2022/04/25 00:09:46;;;;;;;46.25;25.90;;;10.30;99.90;;;;;;4993450;28;20036;-85
2022/04/25 00:12:12;;;;;;;46.65;26.52;;;10.30;99.90;;;;;;5001139;28;20034;-85
2022/04/25 00:14:37;;;;;;;45.22;25.63;;;10.20;99.90;;;;;;4992645;28;20440;-87
2022/04/25 00:17:03;;;;;;;43.38;24.38;;;10.20;99.90;;;;;;5004894;28;20030;-86
2022/04/25 00:19:29;;;;;;;38.80;22.75;;;10.30;99.90;;;;;;4997106;28;20018;-85
2022/04/25 00:21:55;;;;;;;39.50;23.75;;;10.20;99.90;;;;;;4996634;28;20104;-86
2022/04/25 00:24:20;;;;;;;39.67;23.00;;;10.30;99.90;;;;;;5012125;28;20547;-86
2022/04/25 00:26:46;;;;;;;41.85;23.73;;;10.30;99.90;;;;;;5001207;28;20030;-86
2022/04/25 00:29:12;;;;;;;38.80;22.77;;;10.30;99.90;;;;;;4988082;28;20113;-86
2022/04/25 00:31:39;;;;;;;40.70;23.95;;;10.30;99.90;;;;;;4997992;28;20040;-86
2022/04/25 00:34:04;;;;;;;40.78;23.33;;;10.40;99.90;;;;;;4997785;28;20088;-86
2022/04/25 00:36:30;;;;;;;38.47;23.80;;;10.40;99.90;;;;;;4993608;28;20026;-86
2022/04/25 00:38:56;;;;;;;41.40;25.05;;;10.40;99.90;;;;;;4995269;28;20041;-85
2022/04/25 00:41:21;;;;;;;43.63;24.13;;;10.40;99.90;;;;;;4990590;28;20040;-86
2022/04/25 00:43:47;;;;;;;39.08;23.25;;;10.40;99.90;;;;;;4989684;28;20033;-85
2022/04/25 00:46:23;;;;;;;41.17;24.25;;;10.40;99.90;;;;;;4989450;28;20153;-86
2022/04/25 00:48:49;;;;;;;40.53;23.83;;;10.40;99.90;;;;;;4987593;28;20373;-85
2022/04/25 00:51:16;;;;;;;39.17;24.38;;;10.40;99.90;;;;;;4993551;28;20049;-86
2022/04/25 00:53:44;;;;;;;37.17;23.77;;;10.40;99.90;;;;;;4989395;28;20029;-86
2022/04/25 00:56:13;;;;;;;37.78;24.48;;;10.30;99.90;;;;;;5006950;28;20029;-87
2022/04/25 00:58:38;;;;;;;39.45;23.88;;;10.30;99.90;;;;;;5012538;28;20023;-86
2022/04/25 01:01:04;;;;;;;36.50;24.23;;;10.30;99.90;;;;;;4990586;28;20095;-86
2022/04/25 01:03:30;;;;;;;37.65;25.13;;;10.30;99.90;;;;;;4985342;28;20030;-85
2022/04/25 01:05:55;;;;;;;41.22;24.77;;;10.20;99.90;;;;;;4991942;28;20022;-86
2022/04/25 01:08:21;;;;;;;38.38;24.13;;;10.20;99.90;;;;;;4993979;28;20033;-85
2022/04/25 01:10:47;;;;;;;38.80;24.42;;;10.20;99.90;;;;;;4990189;28;20056;-87
2022/04/25 01:13:13;;;;;;;35.97;23.95;;;10.10;99.90;;;;;;5006581;28;20014;-86
2022/04/25 01:15:39;;;;;;;36.92;24.17;;;10.10;99.90;;;;;;4995408;28;20030;-87
2022/04/25 01:18:05;;;;;;;33.47;22.67;;;10.10;99.90;;;;;;4992594;28;20132;-85
2022/04/25 01:20:30;;;;;;;35.55;23.63;;;10.10;99.90;;;;;;4988001;28;20072;-85
2022/04/25 01:28:54;;;;;;;34.97;22.45;;;10.00;99.90;;;;;;5009609;28;20037;-86
2022/04/25 01:31:20;;;;;;;34.88;22.60;;;10.00;99.90;;;;;;5005965;28;20038;-86
2022/04/25 01:33:46;;;;;;;34.72;23.23;;;10.00;99.90;;;;;;4998848;28;20454;-86
2022/04/25 01:36:12;;;;;;;33.92;22.63;;;10.00;99.90;;;;;;5010726;28;20185;-87
2022/04/25 01:38:38;;;;;;;32.80;22.60;;;10.00;99.90;;;;;;5006267;28;20065;-87
2022/04/25 01:41:03;;;;;;;34.75;23.80;;;10.10;99.90;;;;;;5011525;28;20018;-87
2022/04/25 01:43:29;;;;;;;35.22;22.70;;;10.10;99.90;;;;;;5014447;28;20034;-85
2022/04/25 01:45:54;;;;;;;36.08;23.30;;;10.10;99.90;;;;;;4991905;28;20025;-85
2022/04/25 01:48:21;;;;;;;34.17;23.27;;;10.10;99.90;;;;;;5008083;28;20050;-85
2022/04/25 01:50:49;;;;;;;33.30;22.77;;;10.10;99.90;;;;;;5006308;28;20015;-86
2022/04/25 01:53:15;;;;;;;33.72;22.65;;;10.10;99.90;;;;;;4993477;28;20411;-85
2022/04/25 01:55:41;;;;;;;36.08;23.60;;;10.10;99.90;;;;;;5011116;28;20034;-85
2022/04/25 01:58:06;;;;;;;33.10;22.92;;;10.10;99.90;;;;;;4995979;28;20076;-86
2022/04/25 02:00:33;;;;;;;30.95;22.02;;;10.10;99.90;;;;;;4998918;28;20022;-85
2022/04/25 02:02:58;;;;;;;34.63;22.55;;;10.10;99.90;;;;;;4991924;28;20053;-85
2022/04/25 02:05:24;;;;;;;35.95;23.13;;;10.10;99.90;;;;;;5015786;28;20026;-85
2022/04/25 02:07:49;;;;;;;32.97;23.40;;;10.10;99.90;;;;;;5003234;28;20412;-85
2022/04/25 02:10:15;;;;;;;34.80;23.05;;;10.10;99.90;;;;;;5006015;28;20023;-86
2022/04/25 02:12:43;;;;;;;35.08;23.27;;;10.10;99.90;;;;;;4988253;28;20022;-85
2022/04/25 02:15:12;;;;;;;34.95;23.75;;;10.10;99.90;;;;;;4993742;28;20022;-85
2022/04/25 02:17:38;;;;;;;38.05;23.55;;;10.10;99.90;;;;;;5005105;28;20141;-85
2022/04/25 02:20:05;;;;;;;33.70;23.27;;;10.10;99.90;;;;;;4998817;28;20113;-85
2022/04/25 02:22:31;;;;;;;36.35;23.17;;;10.10;99.90;;;;;;5014308;28;20556;-85
2022/04/25 02:24:57;;;;;;;34.30;23.13;;;10.10;99.90;;;;;;5012983;28;20113;-86
2022/04/25 02:27:23;;;;;;;36.70;24.00;;;10.10;99.90;;;;;;4994346;28;20072;-85
2022/04/25 02:29:53;;;;;;;35.85;23.88;;;10.10;99.90;;;;;;4997923;28;20022;-86
2022/04/25 02:32:19;;;;;;;34.45;22.05;;;10.10;99.90;;;;;;4990667;28;20036;-85
2022/04/25 02:34:44;;;;;;;36.17;22.90;;;10.10;99.90;;;;;;5011327;28;20022;-84
2022/04/25 02:37:10;;;;;;;39.05;23.63;;;10.10;99.90;;;;;;4990788;28;20030;-85
2022/04/25 02:39:35;;;;;;;35.17;22.95;;;10.10;99.90;;;;;;5010675;28;20026;-85
2022/04/25 02:42:01;;;;;;;34.35;22.58;;;10.10;99.90;;;;;;4986908;28;20026;-85
2022/04/25 02:44:27;;;;;;;33.35;22.63;;;10.10;99.90;;;;;;4996333;28;20033;-86
2022/04/25 05:11:50;;;;;;;36.55;22.80;;;9.60;99.90;;;;;;5013835;28;20057;-89
2022/04/25 05:14:16;;;;;;;33.70;21.80;;;9.60;99.90;;;;;;5004573;28;20026;-88
2022/04/25 05:16:41;;;;;;;31.35;21.38;;;9.70;99.90;;;;;;5003193;28;20026;-90
2022/04/25 05:19:18;;;;;;;29.30;20.38;;;9.80;99.90;;;;;;5007538;28;20014;-91
2022/04/25 05:21:44;;;;;;;30.38;21.30;;;9.80;99.90;;;;;;5017662;28;20017;-90
2022/04/25 05:24:09;;;;;;;29.30;19.45;;;9.90;99.90;;;;;;5007528;28;20034;-90
2022/04/25 05:26:35;;;;;;;25.90;19.23;;;9.90;99.90;;;;;;5014340;28;20025;-91
2022/04/25 05:29:04;;;;;;;24.58;18.73;;;10.00;99.90;;;;;;5010501;28;20032;-91
2022/04/25 05:31:29;;;;;;;24.65;18.42;;;10.10;99.90;;;;;;5011876;28;20029;-91
2022/04/25 05:33:55;;;;;;;26.20;18.13;;;10.20;99.90;;;;;;5004572;28;20457;-90
2022/04/25 05:36:21;;;;;;;26.17;17.42;;;10.30;99.90;;;;;;5007762;28;20026;-91
2022/04/25 05:38:47;;;;;;;25.05;16.77;;;10.40;99.90;;;;;;5001860;28;20010;-91
2022/04/25 05:41:12;;;;;;;21.38;15.40;;;10.50;99.90;;;;;;5003743;28;20029;-90
2022/04/25 05:43:47;;;;;;;19.20;15.25;;;10.60;99.90;;;;;;5006035;28;20145;-89
2022/04/25 05:46:12;;;;;;;21.23;14.82;;;10.70;99.90;;;;;;4990223;28;20367;-90
2022/04/25 05:54:06;;;;;;;16.95;14.13;;;10.90;99.90;;;;;;5017641;28;20037;-89
2022/04/25 05:56:32;;;;;;;16.83;12.93;;;10.90;99.90;;;;;;5010864;28;20005;-89
2022/04/25 05:58:58;;;;;;;17.88;14.10;;;11.00;99.90;;;;;;5019205;28;20021;-87
2022/04/25 06:01:23;;;;;;;16.92;13.05;;;11.00;99.90;;;;;;5025987;28;20015;-88
2022/04/25 06:03:49;;;;;;;16.13;12.65;;;11.10;99.90;;;;;;5015769;28;20014;-89
2022/04/25 06:06:15;;;;;;;17.42;13.48;;;11.10;99.90;;;;;;5007452;28;20030;-90
2022/04/25 06:08:40;;;;;;;16.75;13.25;;;11.20;99.90;;;;;;4993661;28;20388;-90
2022/04/25 06:11:06;;;;;;;15.50;12.55;;;11.20;99.90;;;;;;4992207;28;20109;-90
2022/04/25 06:13:32;;;;;;;15.65;11.63;;;11.30;99.90;;;;;;4993689;28;20026;-90
2022/04/25 06:15:57;;;;;;;15.98;12.15;;;11.30;99.90;;;;;;4998910;28;20030;-90
2022/04/25 06:18:23;;;;;;;15.70;12.02;;;11.30;99.90;;;;;;4997694;28;20022;-90
2022/04/25 06:20:50;;;;;;;14.45;11.82;;;11.40;99.90;;;;;;5010227;28;20211;-90
2022/04/25 06:23:16;;;;;;;13.82;11.75;;;11.30;99.90;;;;;;4997104;28;20045;-90
2022/04/25 06:25:41;;;;;;;15.23;11.80;;;11.20;99.90;;;;;;4998747;28;20029;-90
2022/04/25 06:28:08;;;;;;;15.48;11.32;;;11.10;99.90;;;;;;5003475;28;20049;-89
2022/04/25 06:30:34;;;;;;;15.30;11.43;;;11.00;99.90;;;;;;5010342;28;20037;-90
2022/04/25 06:33:00;;;;;;;17.27;11.68;;;11.00;99.90;;;;;;5008320;28;20033;-91
2022/04/25 06:35:29;;;;;;;14.13;11.13;;;11.00;99.90;;;;;;5001672;28;20030;-90
2022/04/25 06:38:08;;;;;;;13.98;12.02;;;11.00;99.90;;;;;;5008894;28;20046;-92
2022/04/25 06:57:08;;;;;;;12.23;10.05;;;12.30;99.90;;;;;;5017384;28;20061;-86
2022/04/25 08:08:36;;;;;;;7.63;6.00;;;18.20;99.90;;;;;;5039100;23;20095;-89
2022/04/25 08:11:02;;;;;;;6.18;5.57;;;18.10;99.50;;;;;;5012798;28;20639;-91
2022/04/25 08:18:57;;;;;;;6.20;5.40;;;17.90;98.60;;;;;;5024481;28;20029;-90
2022/04/25 08:21:23;;;;;;;6.03;5.43;;;18.20;98.40;;;;;;5010114;28;20516;-90
2022/04/25 08:23:48;;;;;;;5.63;5.13;;;18.50;98.10;;;;;;5006985;28;20021;-90
2022/04/25 08:26:14;;;;;;;5.55;5.05;;;18.80;97.40;;;;;;5014649;28;20052;-89
2022/04/25 08:28:43;;;;;;;5.53;5.03;;;18.90;96.40;;;;;;5002948;28;20116;-92
2022/04/25 08:31:12;;;;;;;5.13;4.72;;;19.20;96.40;;;;;;5020381;28;20506;-91
2022/04/25 08:33:37;;;;;;;8.68;7.30;;;19.50;95.80;;;;;;5021926;28;20034;-90
2022/04/25 08:36:03;;;;;;;5.10;4.60;;;19.80;95.00;;;;;;5020290;28;20539;-89
2022/04/25 08:38:29;;;;;;;5.13;4.63;;;19.90;93.80;;;;;;5009124;28;20040;-90
2022/04/25 08:40:57;;;;;;;5.55;5.05;;;20.10;93.30;;;;;;5015888;28;20036;-90
2022/04/25 08:43:23;;;;;;;5.05;4.55;;;20.40;92.70;;;;;;5000293;28;20053;-89
2022/04/25 08:45:57;;;;;;;5.88;5.03;;;20.60;91.90;;;;;;5004920;28;20033;-94
2022/04/25 08:48:25;;;;;;;5.50;5.05;;;20.60;91.10;;;;;;5007554;23;20046;-87
2022/04/25 08:50:52;;;;;;;5.78;5.22;;;20.50;90.50;;;;;;4997737;28;20086;-86
2022/04/25 08:53:19;;;;;;;5.95;4.03;;;20.70;89.70;;;;;;4981784;28;20059;-87
2022/04/25 08:55:45;;;;;;;4.40;4.00;;;21.00;88.80;;;;;;4964082;28;20022;-87
2022/04/25 08:58:12;;;;;;;4.90;4.47;;;21.40;88.30;;;;;;4959156;28;20054;-85
2022/04/25 09:00:38;;;;;;;4.45;4.05;;;21.80;86.80;;;;;;4971148;28;20029;-87
2022/04/25 09:03:04;;;;;;;4.70;4.30;;;22.10;84.30;;;;;;4963305;28;20094;-86
2022/04/25 09:05:29;;;;;;;4.53;4.10;;;22.40;81.80;;;;;;4960422;28;20082;-89
2022/04/25 09:07:55;;;;;;;10.38;3.90;;;22.30;79.40;;;;;;4980040;28;20038;-87
2022/04/25 09:10:21;;;;;;;4.63;4.22;;;22.00;78.50;;;;;;4976631;28;20718;-86
2022/04/25 09:12:47;;;;;;;3.92;3.63;;;21.50;77.30;;;;;;4980205;28;20027;-87
2022/04/25 09:15:20;;;;;;;4.10;3.80;;;21.60;76.10;;;;;;4977749;28;20030;-87
2022/04/25 09:17:47;;;;;;;6.10;3.60;;;22.00;73.70;;;;;;4978621;28;20030;-86
2022/04/25 09:20:12;;;;;;;3.80;3.40;;;22.50;73.20;;;;;;4971835;28;20026;-87
2022/04/25 09:22:42;;;;;;;4.80;3.15;;;23.10;71.60;;;;;;4972163;28;20023;-86
2022/04/25 09:25:10;;;;;;;3.30;3.00;;;23.70;68.00;;;;;;4967833;28;20045;-85
2022/04/25 09:27:37;;;;;;;3.40;3.10;;;24.50;65.80;;;;;;4972889;28;20034;-85
2022/04/25 09:30:22;;;;;;;3.47;3.17;;;25.20;62.70;;;;;;4971602;28;20022;-85
2022/04/25 09:32:52;;;;;;;2.80;2.60;;;25.80;59.50;;;;;;4958299;28;20022;-86
2022/04/25 09:35:25;;;;;;;2.70;2.50;;;26.00;57.90;;;;;;4953653;28;20981;-86
2022/04/25 09:37:51;;;;;;;2.25;2.10;;;25.90;56.50;;;;;;4964014;28;20031;-87
2022/04/25 09:40:25;;;;;;;2.53;2.33;;;26.00;55.90;;;;;;4951765;28;20041;-86
2022/04/25 09:43:12;;;;;;;2.50;2.30;;;25.60;54.70;;;;;;4956419;28;20039;-86
2022/04/25 09:45:42;;;;;;;2.20;2.10;;;25.60;55.70;;;;;;4969248;28;20102;-87
2022/04/25 09:48:18;;;;;;;1.80;1.70;;;25.40;55.80;;;;;;4952158;28;20118;-87
2022/04/25 09:50:59;;;;;;;35.33;8.95;;;25.20;55.10;;;;;;4957515;28;20289;-87
2022/04/25 09:53:40;;;;;;;1.80;1.70;;;26.30;54.50;;;;;;4953762;28;20042;-86
2022/04/25 09:56:12;;;;;;;2.10;2.00;;;27.40;52.30;;;;;;4972206;28;20023;-86
2022/04/25 09:58:39;;;;;;;2.28;2.08;;;28.00;51.20;;;;;;4970008;28;20022;-86
2022/04/25 10:01:13;;;;;;;2.72;2.47;;;28.60;51.10;;;;;;4974415;28;20109;-86
2022/04/25 10:03:40;;;;;;;2.75;2.55;;;29.10;49.10;;;;;;4970806;28;20424;-86
2022/04/25 10:06:06;;;;;;;3.55;2.90;;;28.50;49.00;;;;;;4956587;28;20518;-85
2022/04/25 10:08:35;;;;;;;2.75;2.55;;;26.70;50.30;;;;;;4956030;28;20062;-85
2022/04/25 10:11:07;;;;;;;2.45;2.30;;;25.30;51.70;;;;;;4954674;28;20037;-85
2022/04/25 10:13:33;;;;;;;2.70;2.55;;;24.20;52.40;;;;;;4956067;28;20052;-86
2022/04/25 10:16:00;;;;;;;2.88;2.67;;;24.00;53.40;;;;;;4975646;28;20022;-85
2022/04/25 10:18:27;;;;;;;3.22;2.92;;;24.80;52.80;;;;;;4972369;28;20050;-86
2022/04/25 10:20:52;;;;;;;2.60;2.45;;;24.30;52.60;;;;;;4984441;28;20011;-87
2022/04/25 10:23:18;;;;;;;3.30;3.00;;;24.40;52.80;;;;;;4983773;28;20103;-88
2022/04/25 10:25:49;;;;;;;3.13;2.92;;;23.90;52.90;;;;;;4974279;28;20022;-87
2022/04/25 10:28:20;;;;;;;3.10;2.80;;;23.80;53.40;;;;;;4959881;28;20026;-88
2022/04/25 10:30:48;;;;;;;2.45;2.25;;;23.90;52.80;;;;;;4954902;28;20511;-90
2022/04/25 10:33:22;;;;;;;2.78;2.58;;;23.10;54.30;;;;;;4973256;28;20093;-89
2022/04/25 10:35:51;;;;;;;2.60;2.33;;;22.70;54.80;;;;;;4956550;28;20500;-90
2022/04/25 10:38:49;;;;;;;2.70;2.50;;;21.90;55.60;;;;;;4957469;28;20100;-90
2022/04/25 10:44:17;;;;;;;40.60;28.95;;;21.40;56.40;;;;;;4980443;28;20037;-89
2022/04/25 10:47:13;;;;;;;3.05;2.85;;;22.30;55.80;;;;;;4954045;28;20041;-89
2022/04/25 10:49:42;;;;;;;2.80;2.60;;;21.50;57.20;;;;;;4969006;28;20587;-89
2022/04/25 10:52:42;;;;;;;3.13;2.85;;;21.10;57.10;;;;;;4962138;28;20042;-90
2022/04/25 10:55:29;;;;;;;2.97;2.78;;;20.70;57.50;;;;;;4971725;28;20117;-89
2022/04/25 10:58:59;;;;;;;2.70;2.50;;;20.30;58.10;;;;;;4963746;28;20042;-93
2022/04/25 11:05:26;;;;;;;2.42;2.22;;;19.50;59.50;;;;;;4992988;28;20019;-92
2022/04/25 11:11:59;;;;;;;3.03;2.72;;;19.60;60.10;;;;;;4987547;28;20034;-91
2022/04/25 11:18:12;;;;;;;;;;;;;;;;;;;;;
2022/04/25 11:21:13;;;;;;;2.08;1.98;;;19.80;60.10;;;;;;4980696;28;20050;-92
2022/04/25 11:42:12;;;;;;;3.00;2.80;;;18.70;61.50;;;;;;5012302;28;20073;-93
2022/04/25 11:44:41;;;;;;;4.00;3.30;;;18.60;61.70;;;;;;4972880;28;20034;-91
2022/04/25 11:47:27;;;;;;;3.30;3.00;;;18.50;61.90;;;;;;4983878;28;20018;-92
2022/04/25 11:50:19;;;;;;;2.97;2.78;;;18.40;62.10;;;;;;4984183;28;20122;-91
2022/04/25 11:52:51;;;;;;;3.47;3.17;;;18.20;62.10;;;;;;4992164;28;20053;-90
2022/04/25 11:55:51;;;;;;;3.67;3.33;;;18.20;62.50;;;;;;4979799;28;20122;-93
2022/04/25 11:58:47;;;;;;;;;;;;;;;;;;;;;
2022/04/25 12:01:30;;;;;;;3.42;3.13;;;17.80;62.80;;;;;;4991220;28;20030;-91
2022/04/25 12:04:33;;;;;;;4.13;3.63;;;17.80;63.30;;;;;;4977638;28;20026;-90
2022/04/25 12:07:00;;;;;;;3.33;3.03;;;17.80;63.50;;;;;;4972422;28;20038;-90
2022/04/25 12:15:40;;;;;;;3.60;3.30;;;17.60;64.20;;;;;;5002055;28;20032;-91
2022/04/25 12:18:17;;;;;;;3.80;3.38;;;17.60;64.40;;;;;;4984492;28;20027;-88
2022/04/25 12:20:49;;;;;;;5.72;3.70;;;17.60;64.80;;;;;;4973259;28;20072;-89
2022/04/25 12:23:32;;;;;;;4.13;3.75;;;17.60;64.30;;;;;;4972760;28;20056;-88
2022/04/25 12:26:02;;;;;;;3.55;3.25;;;17.60;64.60;;;;;;4973754;28;20061;-88
2022/04/25 12:28:30;;;;;;;3.42;3.13;;;17.50;64.60;;;;;;4984276;28;20034;-88
2022/04/25 12:30:57;;;;;;;3.70;3.40;;;17.50;65.00;;;;;;4976039;28;20368;-88
2022/04/25 12:33:50;;;;;;;3.35;3.00;;;17.50;65.10;;;;;;4970642;28;20104;-88
2022/04/25 12:36:18;;;;;;;3.38;3.08;;;17.50;65.00;;;;;;4968694;28;20089;-89
2022/04/25 12:38:52;;;;;;;3.58;3.10;;;17.50;65.00;;;;;;4990154;28;20018;-89
2022/04/25 12:41:31;;;;;;;3.45;3.15;;;17.50;64.90;;;;;;4972482;28;20038;-89
2022/04/25 12:43:58;;;;;;;3.65;3.20;;;17.50;64.80;;;;;;4971151;28;20027;-87
2022/04/25 12:46:47;;;;;;;3.00;2.72;;;17.50;64.70;;;;;;4993029;28;20497;-93
2022/04/25 12:49:17;;;;;;;3.17;2.88;;;17.50;65.00;;;;;;4969048;28;20039;-90
2022/04/25 12:51:55;;;;;;;3.38;3.15;;;17.50;65.20;;;;;;4972361;28;20045;-91
2022/04/25 12:54:37;;;;;;;4.18;3.25;;;17.50;64.80;;;;;;4977272;28;20388;-89
2022/04/25 12:57:06;;;;;;;5.00;3.40;;;17.50;65.20;;;;;;4974552;28;20019;-89
2022/04/25 12:59:33;;;;;;;3.80;3.50;;;17.50;65.50;;;;;;4975282;28;20026;-89
2022/04/25 13:02:14;;;;;;;3.78;3.40;;;17.50;65.70;;;;;;4967027;28;20035;-90
2022/04/25 13:05:11;;;;;;;3.67;3.33;;;17.50;66.00;;;;;;4969717;28;20026;-89
2022/04/25 13:07:39;;;;;;;3.15;2.92;;;17.50;66.30;;;;;;4973059;28;20045;-90
2022/04/25 13:10:06;;;;;;;3.47;3.17;;;17.50;66.10;;;;;;4993378;28;20118;-89
2022/04/25 13:12:46;;;;;;;4.13;3.28;;;17.40;66.20;;;;;;4971731;28;20032;-88
2022/04/25 13:15:20;;;;;;;10.38;3.17;;;17.30;66.30;;;;;;4975775;28;20121;-90
2022/04/25 13:17:51;;;;;;;3.72;3.42;;;17.20;66.30;;;;;;4971678;28;20499;-90
2022/04/25 13:20:20;;;;;;;4.30;3.80;;;17.10;66.70;;;;;;4973733;28;20037;-90
2022/04/25 13:22:47;;;;;;;3.67;3.38;;;17.00;66.60;;;;;;4980096;28;20499;-89
2022/04/25 13:25:14;;;;;;;3.60;3.30;;;16.90;66.90;;;;;;4976959;28;20053;-88
2022/04/25 13:27:41;;;;;;;4.53;3.20;;;16.90;66.70;;;;;;5011174;28;20045;-89
2022/04/25 13:30:09;;;;;;;3.55;3.25;;;16.80;66.90;;;;;;4998086;28;20089;-89
2022/04/25 13:32:40;;;;;;;3.70;3.40;;;16.70;67.60;;;;;;5007173;28;20021;-91
2022/04/25 13:35:17;;;;;;;4.05;3.50;;;16.70;67.70;;;;;;4981463;28;20018;-91
2022/04/25 13:37:52;;;;;;;3.70;3.40;;;16.40;68.30;;;;;;4982653;28;20484;-92
2022/04/25 13:40:28;;;;;;;4.60;3.85;;;16.10;68.80;;;;;;4984119;28;20027;-92
2022/04/25 13:42:54;;;;;;;4.63;4.00;;;15.90;69.60;;;;;;4979669;28;20034;-89
2022/04/25 13:45:25;;;;;;;5.10;4.60;;;15.70;70.40;;;;;;4984460;28;20475;-92
2022/04/25 13:47:51;;;;;;;4.70;4.20;;;15.50;71.40;;;;;;4981842;28;20034;-85
2022/04/25 13:50:17;;;;;;;7.35;5.00;;;15.40;71.90;;;;;;4974179;28;20037;-86
2022/04/25 13:52:42;;;;;;;9.27;5.82;;;15.20;72.70;;;;;;4991048;28;20049;-83
2022/04/25 13:55:08;;;;;;;8.10;4.85;;;14.80;73.70;;;;;;4974536;28;20018;-87
2022/04/25 13:57:34;;;;;;;5.55;5.05;;;14.60;75.10;;;;;;4993880;28;20483;-86
2022/04/25 13:59:59;;;;;;;8.35;5.03;;;14.50;76.20;;;;;;4994487;28;20032;-85
2022/04/25 14:05:09;;;;;;;6.70;5.32;;;14.50;77.50;;;;;;4989718;28;20049;-86
2022/04/25 14:07:59;;;;;;;8.23;5.75;;;14.40;78.40;;;;;;4995501;28;20023;-88
2022/04/25 14:10:27;;;;;;;6.30;5.65;;;14.40;79.90;;;;;;4982838;28;20022;-90
2022/04/25 14:12:53;;;;;;;5.82;5.32;;;14.40;80.20;;;;;;4987506;28;20014;-92
2022/04/25 14:15:22;;;;;;;7.93;5.72;;;14.50;81.30;;;;;;4988426;28;20129;-94
2022/04/25 14:17:48;;;;;;;5.70;5.10;;;14.60;82.20;;;;;;4985251;28;20057;-91
2022/04/25 14:20:14;;;;;;;7.93;4.97;;;14.60;82.50;;;;;;4984821;28;20419;-91
2022/04/25 14:22:40;;;;;;;6.55;5.35;;;14.60;82.90;;;;;;4984422;28;20045;-90
2022/04/25 14:25:07;;;;;;;5.80;5.20;;;14.70;84.30;;;;;;4978142;28;20022;-90
2022/04/25 14:27:37;;;;;;;4.93;4.50;;;14.70;84.30;;;;;;4986812;28;20093;-92
2022/04/25 14:30:15;;;;;;;5.45;4.30;;;14.70;84.50;;;;;;4990732;28;20085;-92
2022/04/25 14:32:42;;;;;;;6.05;5.10;;;14.70;85.20;;;;;;4995112;28;20057;-91
2022/04/25 14:35:08;;;;;;;4.85;4.45;;;14.70;85.60;;;;;;4982820;28;20031;-91
2022/04/25 14:37:34;;;;;;;6.15;4.75;;;14.70;86.00;;;;;;4983796;28;20038;-92
2022/04/25 14:39:59;;;;;;;44.53;32.03;;;14.70;87.00;;;;;;4993233;28;20549;-91
2022/04/25 14:42:25;;;;;;;4.60;4.20;;;14.70;87.50;;;;;;4978536;28;20026;-89
2022/04/25 14:44:51;;;;;;;4.30;3.90;;;14.70;87.70;;;;;;4977011;28;20033;-89
2022/04/25 14:57:38;;;;;;;4.07;3.78;;;14.60;89.10;;;;;;5039272;28;20045;-90
2022/04/25 15:00:09;;;;;;;5.63;5.10;;;14.60;89.30;;;;;;5012083;28;20076;-91
2022/04/25 15:02:34;;;;;;;5.03;4.53;;;14.60;90.00;;;;;;5015574;28;20113;-89
2022/04/25 15:05:00;;;;;;;5.45;4.65;;;14.60;90.20;;;;;;5025049;28;20272;-91
2022/04/25 15:07:26;;;;;;;5.30;4.80;;;14.50;90.30;;;;;;5020436;28;20051;-90
2022/04/25 15:09:52;;;;;;;6.10;5.50;;;14.60;90.60;;;;;;5030426;28;20088;-90
2022/04/25 15:12:18;;;;;;;6.10;5.18;;;14.60;90.90;;;;;;5022044;28;20052;-90
2022/04/25 15:14:49;;;;;;;6.47;5.78;;;14.60;91.30;;;;;;5026249;28;20055;-92
2022/04/25 15:17:15;;;;;;;6.28;5.68;;;14.60;91.60;;;;;;5027901;28;20089;-92
2022/04/25 15:19:47;;;;;;;6.10;5.50;;;14.60;91.50;;;;;;5023255;28;20056;-92
2022/04/25 15:22:13;;;;;;;8.05;6.82;;;14.50;91.50;;;;;;5032234;28;20026;-93
2022/04/25 15:24:58;;;;;;;;;;;;;;;;;;;;;
2022/04/25 15:28:07;;;;;;;7.80;6.55;;;14.40;92.30;;;;;;5038006;28;20057;-92
2022/04/25 15:31:17;;;;;;;7.07;6.38;;;14.30;92.70;;;;;;5019455;28;20042;-92
2022/04/25 15:34:00;;;;;;;8.32;5.72;;;14.40;92.90;;;;;;5035509;28;20021;-94
2022/04/25 15:36:52;;;;;;;7.25;5.88;;;14.30;92.90;;;;;;5046660;28;20020;-92
2022/04/25 15:44:41;;;;;;;6.07;5.50;;;14.10;93.60;;;;;;5424074;22;20057;-92
2022/04/25 15:47:10;;;;;;;7.38;5.93;;;14.10;94.00;;;;;;5015733;28;20034;-92
2022/04/25 15:49:55;;;;;;;8.32;6.25;;;14.10;94.30;;;;;;5021749;28;20026;-92
2022/04/25 15:52:26;;;;;;;7.80;5.65;;;14.20;94.80;;;;;;5038595;28;20124;-93
2022/04/25 15:57:51;;;;;;;7.00;6.30;;;14.20;94.70;;;;;;5014320;28;20049;-92
2022/04/25 16:00:52;;;;;;;;;;;;;;;;;;;;;
2022/04/25 16:03:25;;;;;;;11.32;7.72;;;14.20;95.50;;;;;;5029888;28;20049;-93
2022/04/25 16:11:34;;;;;;;4.93;4.03;;;14.30;95.70;;;;;;5008023;28;20104;-90
2022/04/25 16:13:59;;;;;;;4.70;4.30;;;14.30;95.80;;;;;;4996514;28;20397;-88
2022/04/25 16:16:26;;;;;;;6.20;4.82;;;14.40;95.70;;;;;;4976299;28;20165;-88
2022/04/25 16:18:51;;;;;;;4.55;4.15;;;14.40;95.60;;;;;;4976964;28;20507;-88
2022/04/25 16:21:17;;;;;;;4.90;4.50;;;14.40;95.50;;;;;;4972461;28;20045;-87
2022/04/25 16:23:42;;;;;;;5.03;4.60;;;14.40;95.50;;;;;;4975651;28;20030;-87
2022/04/25 16:28:44;;;;;;;5.13;4.63;;;14.30;95.60;;;;;;5021707;23;20043;-89
2022/04/25 16:31:10;;;;;;;6.85;5.28;;;14.30;95.70;;;;;;4976360;28;20049;-88
2022/04/25 16:33:35;;;;;;;5.80;5.20;;;14.20;96.20;;;;;;4976347;28;20033;-88
2022/04/25 16:36:01;;;;;;;5.65;4.82;;;14.20;96.10;;;;;;4994173;28;20082;-89
2022/04/25 16:38:27;;;;;;;5.88;4.97;;;14.20;96.00;;;;;;4977859;28;20050;-88
2022/04/25 16:40:53;;;;;;;6.13;5.53;;;14.20;96.20;;;;;;4977527;28;20054;-88
2022/04/25 16:43:19;;;;;;;6.20;5.63;;;14.10;96.40;;;;;;4970673;28;20055;-87
2022/04/25 16:45:45;;;;;;;6.20;5.60;;;14.00;96.40;;;;;;4971048;28;20046;-88
2022/04/25 16:48:11;;;;;;;5.47;4.97;;;14.00;96.50;;;;;;4974299;28;20548;-88
2022/04/25 16:50:36;;;;;;;7.50;5.30;;;13.90;96.50;;;;;;4978499;28;20022;-88
2022/04/25 16:53:03;;;;;;;6.20;5.50;;;13.90;96.40;;;;;;4975544;28;20039;-88
2022/04/25 16:55:32;;;;;;;7.55;5.80;;;13.90;96.60;;;;;;4970901;28;20446;-89
2022/04/25 16:57:57;;;;;;;6.63;5.93;;;13.90;96.80;;;;;;4957221;28;20188;-89
2022/04/25 17:00:23;;;;;;;5.97;5.38;;;13.80;97.00;;;;;;4971641;28;20167;-88
2022/04/25 17:02:49;;;;;;;6.97;5.22;;;13.80;96.90;;;;;;4983317;28;20022;-88
2022/04/25 17:05:15;;;;;;;6.47;5.82;;;13.80;96.80;;;;;;4973312;28;20027;-88
2022/04/25 17:07:42;;;;;;;9.73;5.75;;;13.70;96.90;;;;;;4972028;28;20376;-88
2022/04/25 17:10:10;;;;;;;5.80;5.20;;;13.70;97.10;;;;;;4974574;28;20058;-89
2022/04/25 17:12:35;;;;;;;7.15;5.95;;;13.70;97.20;;;;;;4992522;28;20030;-88
2022/04/25 17:15:02;;;;;;;6.85;6.20;;;13.60;97.40;;;;;;4989210;28;20031;-89
2022/04/25 17:17:28;;;;;;;8.65;7.13;;;13.60;97.40;;;;;;4975335;28;20022;-88
2022/04/25 17:19:53;;;;;;;7.10;6.40;;;13.60;97.60;;;;;;4976619;28;20025;-90
2022/04/25 17:22:23;;;;;;;11.07;6.70;;;13.60;97.80;;;;;;4976114;28;20038;-92
2022/04/25 17:29:01;;;;;;;8.20;6.53;;;13.60;98.00;;;;;;4963817;28;20109;-91
